Terminal Aerodrome Forecast
Issued by NWS Twin Cities, MN

Home | Current Version | Previous Version | Text Only | Print | Product List | Glossary On
Versions: 1 2 3 4 5 6 7 8 9 10 11 12 13 14 15 16
000
FTUS43 KMPX 292320
TAFSTC
TAF
KSTC 292320Z 3000/3024 32009KT P6SM VCSH SCT060 SCT120
     FM300200 32007KT P6SM SCT120
     FM301500 03006KT P6SM SCT060 BKN250=

USA.gov is the U.S. government's official web portal to all federal, state and local government web resources and services.